KDYS/DYS METAR and TAF weather

Enter ICAO airport designator
Station Type Date Time Source
KDYS METAR 2020/08/11 00:56 UTC NOAA

KDYS 110056Z AUTO 17010KT 10SM CLR 36/12 M RMK AO2 SLPNO T03620117 VISNO RWY34 CHINO RWY34 $


Station Type Date Time Source
KDYS Decoded METAR 2020/08/11 00:56 UTC NOAA

Abilene, Dyess Air Force Base, TX, United States (KDYS) 32-25-12N 099-51-25W
Aug 10, 2020 - 08:56 PM EDT / 2020.08.11 0056 UTC
Wind: from the S (170 degrees) at 12 MPH (10 KT):0
Visibility: 10 mile(s):0
Sky conditions: clear
Temperature: 97.2 F (36.2 C)
Heat index: 94.6 F (34.8 C):1
Dew Point: 53.1 F (11.7 C)
Relative Humidity: 22%
ob: KDYS 110056Z AUTO 17010KT 10SM CLR 36/12 M RMK AO2 SLPNO T03620117 VISNO RWY34 CHINO RWY34
cycle: 1

Station Type Date Time Source
KDYS TAF 2020/08/11 00:06 UTC NOAA

TAF KDYS 110000Z 1100/1206 18012KT 9999 SKC QNH2986INS
BECMG 1112/1113 19012G18KT 9999 SKC QNH2994INS
BECMG 1118/1119 18012KT 9999 SKC QNH2985INS TX38/1121Z TN25/1112Z

Example: see airport list